Mappsville, Virginia
Current Conditions -  °F | °C
As of 2:54 PM on Sunday 21 Dec 2014 (Local Time) from KWAL Reporting Station
Clear Clear  
Wind Chill: 43°   Ceiling: Unl
Heat Index: 43°   Visibility: 10mi
Dew Point: 27°   Wind: 3mph
Humidity: 53%   Direction: 320°NW
Pressure: 30.29"   Gusts: NA
Location:  37.85°N, 75.57°W
Report Text: KWAL 211954Z AUTO 32003KT 10SM CLR 06/M03 A3029 RMK AO2 SLP254 T00611028
Loading
Personal Weather Stations






























Interactive Weather Map New forecast layout! Learn more

10-Day Weather Forecast

Advertisements
Track Severe Weather on mobile